sensor_id;sensor_type;location;lat;lon;timestamp;P1;durP1;ratioP1;P2;durP2;ratioP2
46463;SDS011;32161;48.148;-1.554;2023-03-08T00:01:37;6.07;;;4.38;;
46463;SDS011;32161;48.148;-1.554;2023-03-08T00:04:08;4.03;;;3.70;;
46463;SDS011;32161;48.148;-1.554;2023-03-08T00:06:36;4.93;;;4.25;;
46463;SDS011;32161;48.148;-1.554;2023-03-08T00:09:03;5.00;;;4.38;;
46463;SDS011;32161;48.148;-1.554;2023-03-08T00:11:31;9.57;;;4.20;;
46463;SDS011;32161;48.148;-1.554;2023-03-08T00:13:59;4.03;;;3.58;;
46463;SDS011;32161;48.148;-1.554;2023-03-08T00:16:27;3.95;;;3.55;;
46463;SDS011;32161;48.148;-1.554;2023-03-08T00:18:55;6.38;;;5.18;;
46463;SDS011;32161;48.148;-1.554;2023-03-08T00:21:23;5.97;;;4.75;;
46463;SDS011;32161;48.148;-1.554;2023-03-08T00:23:52;5.13;;;4.45;;
46463;SDS011;32161;48.148;-1.554;2023-03-08T00:26:20;5.22;;;4.53;;
46463;SDS011;32161;48.148;-1.554;2023-03-08T00:28:47;5.00;;;4.50;;
46463;SDS011;32161;48.148;-1.554;2023-03-08T00:31:15;8.13;;;5.18;;
46463;SDS011;32161;48.148;-1.554;2023-03-08T00:33:43;5.97;;;4.18;;
46463;SDS011;32161;48.148;-1.554;2023-03-08T00:36:12;4.90;;;4.45;;
46463;SDS011;32161;48.148;-1.554;2023-03-08T00:38:43;6.32;;;4.57;;
46463;SDS011;32161;48.148;-1.554;2023-03-08T00:41:12;5.55;;;4.70;;
46463;SDS011;32161;48.148;-1.554;2023-03-08T00:43:40;4.65;;;4.25;;
46463;SDS011;32161;48.148;-1.554;2023-03-08T00:46:07;4.90;;;4.50;;
46463;SDS011;32161;48.148;-1.554;2023-03-08T00:48:35;6.07;;;4.05;;
46463;SDS011;32161;48.148;-1.554;2023-03-08T00:51:03;3.88;;;3.63;;
46463;SDS011;32161;48.148;-1.554;2023-03-08T00:53:32;3.42;;;3.22;;
46463;SDS011;32161;48.148;-1.554;2023-03-08T00:56:01;3.47;;;3.20;;
46463;SDS011;32161;48.148;-1.554;2023-03-08T00:58:29;3.45;;;3.20;;
46463;SDS011;32161;48.148;-1.554;2023-03-08T01:00:58;3.70;;;3.40;;
46463;SDS011;32161;48.148;-1.554;2023-03-08T01:03:26;2.97;;;2.78;;
46463;SDS011;32161;48.148;-1.554;2023-03-08T01:05:54;4.45;;;3.20;;
46463;SDS011;32161;48.148;-1.554;2023-03-08T01:08:24;2.97;;;2.60;;
46463;SDS011;32161;48.148;-1.554;2023-03-08T01:10:54;2.97;;;2.45;;
46463;SDS011;32161;48.148;-1.554;2023-03-08T01:13:25;2.83;;;2.67;;
46463;SDS011;32161;48.148;-1.554;2023-03-08T01:18:22;2.40;;;2.30;;
46463;SDS011;32161;48.148;-1.554;2023-03-08T01:20:53;2.03;;;1.92;;
46463;SDS011;32161;48.148;-1.554;2023-03-08T01:23:22;1.75;;;1.65;;
46463;SDS011;32161;48.148;-1.554;2023-03-08T01:25:56;1.58;;;1.52;;
46463;SDS011;32161;48.148;-1.554;2023-03-08T01:28:26;2.08;;;1.98;;
46463;SDS011;32161;48.148;-1.554;2023-03-08T01:30:59;3.17;;;2.10;;
46463;SDS011;32161;48.148;-1.554;2023-03-08T01:33:28;1.55;;;1.55;;
46463;SDS011;32161;48.148;-1.554;2023-03-08T01:35:55;1.80;;;1.70;;
46463;SDS011;32161;48.148;-1.554;2023-03-08T01:38:23;1.38;;;1.38;;
46463;SDS011;32161;48.148;-1.554;2023-03-08T01:40:54;1.35;;;1.35;;
46463;SDS011;32161;48.148;-1.554;2023-03-08T01:43:23;3.80;;;1.30;;
46463;SDS011;32161;48.148;-1.554;2023-03-08T01:48:55;1.23;;;1.23;;
46463;SDS011;32161;48.148;-1.554;2023-03-08T01:51:33;2.17;;;1.55;;
46463;SDS011;32161;48.148;-1.554;2023-03-08T01:54:06;1.88;;;1.10;;
46463;SDS011;32161;48.148;-1.554;2023-03-08T01:59:06;1.15;;;1.02;;
46463;SDS011;32161;48.148;-1.554;2023-03-08T02:01:34;1.10;;;1.10;;
46463;SDS011;32161;48.148;-1.554;2023-03-08T02:04:01;0.80;;;0.80;;
46463;SDS011;32161;48.148;-1.554;2023-03-08T02:06:29;0.60;;;0.60;;
46463;SDS011;32161;48.148;-1.554;2023-03-08T02:08:57;0.60;;;0.60;;
46463;SDS011;32161;48.148;-1.554;2023-03-08T02:11:29;0.88;;;0.50;;
46463;SDS011;32161;48.148;-1.554;2023-03-08T02:13:58;0.52;;;0.52;;
46463;SDS011;32161;48.148;-1.554;2023-03-08T02:16:27;0.50;;;0.50;;
46463;SDS011;32161;48.148;-1.554;2023-03-08T02:18:56;0.50;;;0.50;;
46463;SDS011;32161;48.148;-1.554;2023-03-08T02:21:27;0.40;;;0.40;;
46463;SDS011;32161;48.148;-1.554;2023-03-08T02:24:03;0.40;;;0.40;;
46463;SDS011;32161;48.148;-1.554;2023-03-08T02:26:42;0.40;;;0.30;;
46463;SDS011;32161;48.148;-1.554;2023-03-08T02:29:10;0.45;;;0.20;;
46463;SDS011;32161;48.148;-1.554;2023-03-08T02:31:38;0.30;;;0.25;;
46463;SDS011;32161;48.148;-1.554;2023-03-08T02:34:06;0.57;;;0.20;;
46463;SDS011;32161;48.148;-1.554;2023-03-08T02:36:33;1.20;;;0.22;;
46463;SDS011;32161;48.148;-1.554;2023-03-08T02:39:02;2.08;;;0.30;;
46463;SDS011;32161;48.148;-1.554;2023-03-08T02:41:30;1.58;;;0.25;;
46463;SDS011;32161;48.148;-1.554;2023-03-08T02:43:58;0.20;;;0.20;;
46463;SDS011;32161;48.148;-1.554;2023-03-08T02:46:25;1.05;;;0.15;;
46463;SDS011;32161;48.148;-1.554;2023-03-08T02:48:53;1.08;;;0.25;;
46463;SDS011;32161;48.148;-1.554;2023-03-08T02:51:20;1.60;;;0.20;;
46463;SDS011;32161;48.148;-1.554;2023-03-08T02:53:48;0.28;;;0.10;;
46463;SDS011;32161;48.148;-1.554;2023-03-08T02:56:17;0.30;;;0.20;;
46463;SDS011;32161;48.148;-1.554;2023-03-08T02:58:45;0.17;;;0.17;;
46463;SDS011;32161;48.148;-1.554;2023-03-08T03:01:13;0.20;;;0.20;;
46463;SDS011;32161;48.148;-1.554;2023-03-08T03:03:41;1.30;;;0.20;;
46463;SDS011;32161;48.148;-1.554;2023-03-08T03:06:12;1.88;;;0.35;;
46463;SDS011;32161;48.148;-1.554;2023-03-08T03:08:40;1.05;;;0.30;;
46463;SDS011;32161;48.148;-1.554;2023-03-08T03:11:11;4.18;;;0.50;;
46463;SDS011;32161;48.148;-1.554;2023-03-08T03:13:42;2.42;;;0.40;;
46463;SDS011;32161;48.148;-1.554;2023-03-08T03:16:11;2.20;;;0.43;;
46463;SDS011;32161;48.148;-1.554;2023-03-08T03:18:41;3.58;;;0.38;;
46463;SDS011;32161;48.148;-1.554;2023-03-08T03:21:09;0.85;;;0.30;;
46463;SDS011;32161;48.148;-1.554;2023-03-08T03:23:39;2.13;;;0.35;;
46463;SDS011;32161;48.148;-1.554;2023-03-08T03:26:07;2.40;;;0.52;;
46463;SDS011;32161;48.148;-1.554;2023-03-08T03:28:37;1.23;;;0.30;;
46463;SDS011;32161;48.148;-1.554;2023-03-08T03:31:07;3.60;;;0.50;;
46463;SDS011;32161;48.148;-1.554;2023-03-08T03:33:36;1.60;;;0.85;;
46463;SDS011;32161;48.148;-1.554;2023-03-08T03:36:04;2.67;;;0.75;;
46463;SDS011;32161;48.148;-1.554;2023-03-08T03:38:35;6.00;;;0.80;;
46463;SDS011;32161;48.148;-1.554;2023-03-08T03:41:03;2.72;;;0.90;;
46463;SDS011;32161;48.148;-1.554;2023-03-08T03:43:32;1.13;;;0.73;;
46463;SDS011;32161;48.148;-1.554;2023-03-08T03:46:00;7.03;;;0.98;;
46463;SDS011;32161;48.148;-1.554;2023-03-08T03:48:32;4.32;;;0.80;;
46463;SDS011;32161;48.148;-1.554;2023-03-08T03:51:01;5.03;;;0.70;;
46463;SDS011;32161;48.148;-1.554;2023-03-08T03:53:32;4.83;;;0.87;;
46463;SDS011;32161;48.148;-1.554;2023-03-08T03:56:01;8.95;;;1.33;;
46463;SDS011;32161;48.148;-1.554;2023-03-08T03:58:29;7.05;;;2.00;;
46463;SDS011;32161;48.148;-1.554;2023-03-08T04:00:57;6.70;;;1.20;;
46463;SDS011;32161;48.148;-1.554;2023-03-08T04:03:25;14.13;;;3.17;;
46463;SDS011;32161;48.148;-1.554;2023-03-08T04:05:54;9.85;;;1.65;;
46463;SDS011;32161;48.148;-1.554;2023-03-08T04:08:32;10.63;;;1.40;;
46463;SDS011;32161;48.148;-1.554;2023-03-08T04:11:06;8.45;;;1.23;;
46463;SDS011;32161;48.148;-1.554;2023-03-08T04:13:34;10.40;;;2.58;;
46463;SDS011;32161;48.148;-1.554;2023-03-08T04:16:07;11.57;;;1.85;;
46463;SDS011;32161;48.148;-1.554;2023-03-08T04:18:36;8.77;;;1.90;;
46463;SDS011;32161;48.148;-1.554;2023-03-08T04:21:05;7.22;;;1.30;;
46463;SDS011;32161;48.148;-1.554;2023-03-08T04:23:33;8.60;;;1.63;;
46463;SDS011;32161;48.148;-1.554;2023-03-08T04:26:02;16.63;;;2.45;;
46463;SDS011;32161;48.148;-1.554;2023-03-08T04:28:31;11.48;;;1.77;;
46463;SDS011;32161;48.148;-1.554;2023-03-08T04:30:59;14.15;;;2.65;;
46463;SDS011;32161;48.148;-1.554;2023-03-08T04:33:36;13.23;;;2.30;;
46463;SDS011;32161;48.148;-1.554;2023-03-08T04:36:05;17.85;;;2.97;;
46463;SDS011;32161;48.148;-1.554;2023-03-08T04:38:33;15.57;;;3.42;;
46463;SDS011;32161;48.148;-1.554;2023-03-08T04:41:01;15.07;;;2.63;;
46463;SDS011;32161;48.148;-1.554;2023-03-08T04:43:34;18.27;;;3.08;;
46463;SDS011;32161;48.148;-1.554;2023-03-08T04:46:02;14.88;;;2.83;;
46463;SDS011;32161;48.148;-1.554;2023-03-08T04:48:30;11.18;;;2.45;;
46463;SDS011;32161;48.148;-1.554;2023-03-08T04:51:00;18.35;;;4.00;;
46463;SDS011;32161;48.148;-1.554;2023-03-08T04:53:31;12.02;;;3.00;;
46463;SDS011;32161;48.148;-1.554;2023-03-08T04:55:59;24.02;;;3.08;;
46463;SDS011;32161;48.148;-1.554;2023-03-08T04:58:27;15.70;;;2.65;;
46463;SDS011;32161;48.148;-1.554;2023-03-08T05:00:55;16.70;;;3.30;;
46463;SDS011;32161;48.148;-1.554;2023-03-08T05:03:23;18.50;;;4.10;;
46463;SDS011;32161;48.148;-1.554;2023-03-08T05:05:52;17.83;;;3.85;;
46463;SDS011;32161;48.148;-1.554;2023-03-08T05:08:21;22.25;;;3.60;;
46463;SDS011;32161;48.148;-1.554;2023-03-08T05:10:52;17.70;;;3.10;;
46463;SDS011;32161;48.148;-1.554;2023-03-08T05:13:23;18.00;;;3.55;;
46463;SDS011;32161;48.148;-1.554;2023-03-08T05:15:50;19.65;;;2.58;;
46463;SDS011;32161;48.148;-1.554;2023-03-08T05:18:18;15.65;;;2.70;;
46463;SDS011;32161;48.148;-1.554;2023-03-08T05:20:51;18.42;;;2.92;;
46463;SDS011;32161;48.148;-1.554;2023-03-08T05:23:20;13.93;;;2.83;;
46463;SDS011;32161;48.148;-1.554;2023-03-08T05:25:53;15.13;;;2.67;;
46463;SDS011;32161;48.148;-1.554;2023-03-08T05:28:23;21.52;;;2.78;;
46463;SDS011;32161;48.148;-1.554;2023-03-08T05:30:58;12.95;;;2.95;;
46463;SDS011;32161;48.148;-1.554;2023-03-08T05:33:27;20.52;;;3.38;;
46463;SDS011;32161;48.148;-1.554;2023-03-08T05:35:55;21.20;;;3.90;;
46463;SDS011;32161;48.148;-1.554;2023-03-08T05:38:23;22.02;;;3.05;;
46463;SDS011;32161;48.148;-1.554;2023-03-08T05:40:51;12.27;;;2.53;;
46463;SDS011;32161;48.148;-1.554;2023-03-08T05:43:20;12.20;;;2.13;;
46463;SDS011;32161;48.148;-1.554;2023-03-08T05:45:54;18.33;;;3.63;;
46463;SDS011;32161;48.148;-1.554;2023-03-08T05:48:23;18.13;;;3.45;;
46463;SDS011;32161;48.148;-1.554;2023-03-08T05:50:50;20.80;;;3.13;;
46463;SDS011;32161;48.148;-1.554;2023-03-08T05:53:19;20.67;;;3.17;;
46463;SDS011;32161;48.148;-1.554;2023-03-08T05:55:47;14.98;;;3.42;;
46463;SDS011;32161;48.148;-1.554;2023-03-08T05:58:16;21.85;;;3.60;;
46463;SDS011;32161;48.148;-1.554;2023-03-08T06:00:43;17.35;;;3.30;;
46463;SDS011;32161;48.148;-1.554;2023-03-08T06:03:11;13.30;;;2.60;;
46463;SDS011;32161;48.148;-1.554;2023-03-08T06:05:38;22.00;;;2.80;;
46463;SDS011;32161;48.148;-1.554;2023-03-08T06:08:06;18.10;;;3.60;;
46463;SDS011;32161;48.148;-1.554;2023-03-08T06:10:33;17.17;;;3.25;;
46463;SDS011;32161;48.148;-1.554;2023-03-08T06:13:01;16.55;;;3.55;;
46463;SDS011;32161;48.148;-1.554;2023-03-08T06:15:30;16.48;;;3.55;;
46463;SDS011;32161;48.148;-1.554;2023-03-08T06:17:58;16.55;;;2.80;;
46463;SDS011;32161;48.148;-1.554;2023-03-08T06:20:25;15.40;;;3.80;;
46463;SDS011;32161;48.148;-1.554;2023-03-08T06:22:53;20.17;;;2.40;;
46463;SDS011;32161;48.148;-1.554;2023-03-08T06:25:21;13.70;;;2.42;;
46463;SDS011;32161;48.148;-1.554;2023-03-08T06:27:48;13.20;;;3.22;;
46463;SDS011;32161;48.148;-1.554;2023-03-08T06:30:16;22.75;;;3.60;;
46463;SDS011;32161;48.148;-1.554;2023-03-08T06:32:45;13.68;;;3.10;;
46463;SDS011;32161;48.148;-1.554;2023-03-08T06:35:13;16.65;;;2.88;;
46463;SDS011;32161;48.148;-1.554;2023-03-08T06:37:41;13.13;;;3.20;;
46463;SDS011;32161;48.148;-1.554;2023-03-08T06:40:09;18.67;;;2.90;;
46463;SDS011;32161;48.148;-1.554;2023-03-08T06:42:38;13.15;;;2.70;;
46463;SDS011;32161;48.148;-1.554;2023-03-08T06:45:06;10.23;;;2.20;;
46463;SDS011;32161;48.148;-1.554;2023-03-08T06:47:35;12.65;;;2.40;;
46463;SDS011;32161;48.148;-1.554;2023-03-08T06:50:05;10.32;;;2.05;;
46463;SDS011;32161;48.148;-1.554;2023-03-08T06:52:33;15.38;;;2.35;;
46463;SDS011;32161;48.148;-1.554;2023-03-08T06:55:01;9.95;;;2.15;;
46463;SDS011;32161;48.148;-1.554;2023-03-08T06:57:29;9.65;;;2.40;;
46463;SDS011;32161;48.148;-1.554;2023-03-08T06:59:57;12.73;;;2.65;;
46463;SDS011;32161;48.148;-1.554;2023-03-08T07:02:24;12.98;;;1.88;;
46463;SDS011;32161;48.148;-1.554;2023-03-08T07:04:52;8.25;;;2.22;;
46463;SDS011;32161;48.148;-1.554;2023-03-08T07:07:21;11.05;;;3.42;;
46463;SDS011;32161;48.148;-1.554;2023-03-08T07:09:48;6.93;;;1.73;;
46463;SDS011;32161;48.148;-1.554;2023-03-08T07:12:16;10.32;;;2.03;;
46463;SDS011;32161;48.148;-1.554;2023-03-08T07:14:43;11.35;;;1.60;;
46463;SDS011;32161;48.148;-1.554;2023-03-08T07:17:11;6.38;;;1.55;;
46463;SDS011;32161;48.148;-1.554;2023-03-08T07:19:39;8.75;;;1.27;;
46463;SDS011;32161;48.148;-1.554;2023-03-08T07:22:06;8.10;;;1.95;;
46463;SDS011;32161;48.148;-1.554;2023-03-08T07:24:36;9.20;;;2.05;;
46463;SDS011;32161;48.148;-1.554;2023-03-08T07:27:03;8.77;;;1.35;;
46463;SDS011;32161;48.148;-1.554;2023-03-08T07:29:31;5.22;;;1.83;;
46463;SDS011;32161;48.148;-1.554;2023-03-08T07:31:58;5.90;;;1.33;;
46463;SDS011;32161;48.148;-1.554;2023-03-08T07:34:26;7.85;;;1.55;;
46463;SDS011;32161;48.148;-1.554;2023-03-08T07:36:54;10.68;;;1.80;;
46463;SDS011;32161;48.148;-1.554;2023-03-08T07:39:21;5.85;;;1.30;;
46463;SDS011;32161;48.148;-1.554;2023-03-08T07:41:50;11.07;;;2.05;;
46463;SDS011;32161;48.148;-1.554;2023-03-08T07:44:17;9.68;;;2.13;;
46463;SDS011;32161;48.148;-1.554;2023-03-08T07:46:45;8.20;;;1.60;;
46463;SDS011;32161;48.148;-1.554;2023-03-08T07:49:13;12.25;;;1.88;;
46463;SDS011;32161;48.148;-1.554;2023-03-08T07:51:40;15.15;;;2.55;;
46463;SDS011;32161;48.148;-1.554;2023-03-08T07:54:09;11.02;;;1.80;;
46463;SDS011;32161;48.148;-1.554;2023-03-08T07:56:37;8.13;;;1.90;;
46463;SDS011;32161;48.148;-1.554;2023-03-08T07:59:05;7.88;;;2.00;;
46463;SDS011;32161;48.148;-1.554;2023-03-08T08:01:33;14.70;;;1.83;;
46463;SDS011;32161;48.148;-1.554;2023-03-08T08:04:01;7.53;;;1.60;;
46463;SDS011;32161;48.148;-1.554;2023-03-08T08:06:29;9.73;;;2.30;;
46463;SDS011;32161;48.148;-1.554;2023-03-08T08:08:56;13.52;;;2.05;;
46463;SDS011;32161;48.148;-1.554;2023-03-08T08:11:24;6.75;;;1.80;;
46463;SDS011;32161;48.148;-1.554;2023-03-08T08:13:51;12.63;;;1.80;;
46463;SDS011;32161;48.148;-1.554;2023-03-08T08:16:20;10.27;;;1.90;;
46463;SDS011;32161;48.148;-1.554;2023-03-08T08:18:50;9.20;;;2.10;;
46463;SDS011;32161;48.148;-1.554;2023-03-08T08:21:18;5.27;;;2.00;;
46463;SDS011;32161;48.148;-1.554;2023-03-08T08:23:46;8.98;;;2.28;;
46463;SDS011;32161;48.148;-1.554;2023-03-08T08:26:15;10.68;;;1.98;;
46463;SDS011;32161;48.148;-1.554;2023-03-08T08:28:48;11.15;;;2.00;;
46463;SDS011;32161;48.148;-1.554;2023-03-08T08:33:48;9.95;;;1.85;;
46463;SDS011;32161;48.148;-1.554;2023-03-08T08:36:16;13.02;;;2.30;;
46463;SDS011;32161;48.148;-1.554;2023-03-08T08:38:45;7.10;;;1.92;;
46463;SDS011;32161;48.148;-1.554;2023-03-08T08:41:13;8.32;;;2.05;;
46463;SDS011;32161;48.148;-1.554;2023-03-08T08:43:43;11.73;;;1.83;;
46463;SDS011;32161;48.148;-1.554;2023-03-08T08:46:12;15.40;;;2.33;;
46463;SDS011;32161;48.148;-1.554;2023-03-08T08:48:42;14.38;;;2.28;;
46463;SDS011;32161;48.148;-1.554;2023-03-08T08:51:11;11.52;;;2.40;;
46463;SDS011;32161;48.148;-1.554;2023-03-08T08:53:39;15.25;;;2.42;;
46463;SDS011;32161;48.148;-1.554;2023-03-08T08:56:09;13.50;;;2.80;;
46463;SDS011;32161;48.148;-1.554;2023-03-08T08:58:39;17.58;;;2.92;;
46463;SDS011;32161;48.148;-1.554;2023-03-08T09:01:11;16.13;;;4.10;;
46463;SDS011;32161;48.148;-1.554;2023-03-08T09:03:40;18.05;;;3.10;;
46463;SDS011;32161;48.148;-1.554;2023-03-08T09:06:09;17.50;;;3.38;;
46463;SDS011;32161;48.148;-1.554;2023-03-08T09:08:37;18.58;;;4.50;;
46463;SDS011;32161;48.148;-1.554;2023-03-08T09:11:06;18.38;;;3.72;;
46463;SDS011;32161;48.148;-1.554;2023-03-08T09:13:36;19.83;;;3.67;;
46463;SDS011;32161;48.148;-1.554;2023-03-08T09:16:06;12.43;;;2.83;;
46463;SDS011;32161;48.148;-1.554;2023-03-08T09:18:44;22.92;;;3.67;;
46463;SDS011;32161;48.148;-1.554;2023-03-08T09:21:12;23.42;;;3.35;;
46463;SDS011;32161;48.148;-1.554;2023-03-08T09:23:40;20.67;;;3.35;;
46463;SDS011;32161;48.148;-1.554;2023-03-08T09:26:08;23.67;;;3.75;;
46463;SDS011;32161;48.148;-1.554;2023-03-08T09:28:36;19.15;;;3.38;;
46463;SDS011;32161;48.148;-1.554;2023-03-08T09:31:04;20.95;;;3.58;;
46463;SDS011;32161;48.148;-1.554;2023-03-08T09:33:37;14.93;;;2.78;;
46463;SDS011;32161;48.148;-1.554;2023-03-08T09:36:07;21.02;;;3.03;;
46463;SDS011;32161;48.148;-1.554;2023-03-08T09:38:36;20.65;;;3.55;;
46463;SDS011;32161;48.148;-1.554;2023-03-08T09:41:07;20.88;;;3.13;;
46463;SDS011;32161;48.148;-1.554;2023-03-08T09:44:02;16.48;;;4.43;;
46463;SDS011;32161;48.148;-1.554;2023-03-08T09:46:39;20.27;;;5.38;;
46463;SDS011;32161;48.148;-1.554;2023-03-08T09:49:12;17.48;;;2.75;;
46463;SDS011;32161;48.148;-1.554;2023-03-08T09:51:46;19.67;;;4.20;;
46463;SDS011;32161;48.148;-1.554;2023-03-08T09:54:21;17.25;;;2.45;;
46463;SDS011;32161;48.148;-1.554;2023-03-08T09:56:51;13.23;;;3.08;;
46463;SDS011;32161;48.148;-1.554;2023-03-08T09:59:22;13.82;;;2.20;;
46463;SDS011;32161;48.148;-1.554;2023-03-08T10:01:57;15.10;;;3.55;;
46463;SDS011;32161;48.148;-1.554;2023-03-08T10:04:44;13.57;;;2.85;;
46463;SDS011;32161;48.148;-1.554;2023-03-08T10:07:26;15.13;;;2.95;;
46463;SDS011;32161;48.148;-1.554;2023-03-08T10:10:22;15.27;;;2.45;;
46463;SDS011;32161;48.148;-1.554;2023-03-08T10:13:06;14.93;;;3.22;;
46463;SDS011;32161;48.148;-1.554;2023-03-08T10:15:55;12.73;;;3.38;;
46463;SDS011;32161;48.148;-1.554;2023-03-08T10:18:34;15.68;;;2.53;;
46463;SDS011;32161;48.148;-1.554;2023-03-08T10:21:09;12.18;;;2.30;;
46463;SDS011;32161;48.148;-1.554;2023-03-08T10:23:43;18.23;;;3.03;;
46463;SDS011;32161;48.148;-1.554;2023-03-08T10:26:14;11.52;;;2.08;;
46463;SDS011;32161;48.148;-1.554;2023-03-08T10:28:43;15.70;;;3.42;;
46463;SDS011;32161;48.148;-1.554;2023-03-08T10:34:00;7.53;;;1.60;;
46463;SDS011;32161;48.148;-1.554;2023-03-08T10:36:45;6.13;;;1.63;;
46463;SDS011;32161;48.148;-1.554;2023-03-08T10:39:19;7.47;;;1.58;;
46463;SDS011;32161;48.148;-1.554;2023-03-08T10:41:47;3.40;;;1.42;;
46463;SDS011;32161;48.148;-1.554;2023-03-08T10:44:28;4.32;;;1.38;;
46463;SDS011;32161;48.148;-1.554;2023-03-08T10:47:01;4.60;;;1.05;;
46463;SDS011;32161;48.148;-1.554;2023-03-08T10:49:43;6.47;;;1.40;;
46463;SDS011;32161;48.148;-1.554;2023-03-08T10:52:18;6.78;;;1.65;;
46463;SDS011;32161;48.148;-1.554;2023-03-08T10:55:01;8.27;;;1.70;;
46463;SDS011;32161;48.148;-1.554;2023-03-08T10:57:32;6.03;;;1.70;;
46463;SDS011;32161;48.148;-1.554;2023-03-08T11:00:06;6.65;;;1.50;;
46463;SDS011;32161;48.148;-1.554;2023-03-08T11:03:00;4.13;;;1.10;;
46463;SDS011;32161;48.148;-1.554;2023-03-08T11:05:37;5.95;;;1.95;;
46463;SDS011;32161;48.148;-1.554;2023-03-08T11:08:13;7.03;;;1.80;;
46463;SDS011;32161;48.148;-1.554;2023-03-08T11:10:46;8.68;;;2.50;;
46463;SDS011;32161;48.148;-1.554;2023-03-08T11:13:20;6.00;;;3.15;;
46463;SDS011;32161;48.148;-1.554;2023-03-08T11:15:54;6.43;;;2.92;;
46463;SDS011;32161;48.148;-1.554;2023-03-08T11:18:35;7.05;;;2.97;;
46463;SDS011;32161;48.148;-1.554;2023-03-08T11:21:31;5.55;;;1.98;;
46463;SDS011;32161;48.148;-1.554;2023-03-08T11:24:24;9.57;;;2.60;;
46463;SDS011;32161;48.148;-1.554;2023-03-08T11:27:10;11.85;;;2.53;;
46463;SDS011;32161;48.148;-1.554;2023-03-08T11:29:54;10.82;;;4.10;;
46463;SDS011;32161;48.148;-1.554;2023-03-08T11:32:37;8.40;;;2.58;;
46463;SDS011;32161;48.148;-1.554;2023-03-08T11:35:22;9.45;;;2.63;;
46463;SDS011;32161;48.148;-1.554;2023-03-08T11:37:58;11.20;;;2.33;;
46463;SDS011;32161;48.148;-1.554;2023-03-08T11:40:35;15.90;;;2.75;;
46463;SDS011;32161;48.148;-1.554;2023-03-08T11:43:21;11.90;;;2.60;;
46463;SDS011;32161;48.148;-1.554;2023-03-08T11:46:15;20.48;;;3.58;;
46463;SDS011;32161;48.148;-1.554;2023-03-08T11:48:50;15.68;;;2.60;;
46463;SDS011;32161;48.148;-1.554;2023-03-08T11:51:40;16.05;;;3.95;;
46463;SDS011;32161;48.148;-1.554;2023-03-08T11:54:17;15.52;;;3.25;;
46463;SDS011;32161;48.148;-1.554;2023-03-08T11:56:57;14.70;;;2.95;;
46463;SDS011;32161;48.148;-1.554;2023-03-08T11:59:30;15.43;;;4.00;;
46463;SDS011;32161;48.148;-1.554;2023-03-08T12:02:03;13.98;;;2.83;;
46463;SDS011;32161;48.148;-1.554;2023-03-08T12:04:42;18.73;;;3.20;;
46463;SDS011;32161;48.148;-1.554;2023-03-08T12:07:32;14.52;;;3.35;;
46463;SDS011;32161;48.148;-1.554;2023-03-08T12:10:07;20.05;;;4.68;;
46463;SDS011;32161;48.148;-1.554;2023-03-08T12:12:45;16.07;;;5.17;;
46463;SDS011;32161;48.148;-1.554;2023-03-08T12:15:22;10.10;;;2.63;;
46463;SDS011;32161;48.148;-1.554;2023-03-08T12:17:58;18.92;;;3.92;;
46463;SDS011;32161;48.148;-1.554;2023-03-08T12:20:41;12.98;;;2.45;;
46463;SDS011;32161;48.148;-1.554;2023-03-08T12:23:13;11.43;;;2.47;;
46463;SDS011;32161;48.148;-1.554;2023-03-08T12:25:52;11.40;;;2.58;;
46463;SDS011;32161;48.148;-1.554;2023-03-08T12:28:27;18.13;;;3.20;;
46463;SDS011;32161;48.148;-1.554;2023-03-08T12:31:02;14.15;;;2.55;;
46463;SDS011;32161;48.148;-1.554;2023-03-08T12:33:45;12.95;;;3.00;;
46463;SDS011;32161;48.148;-1.554;2023-03-08T12:36:13;9.48;;;2.33;;
46463;SDS011;32161;48.148;-1.554;2023-03-08T12:38:43;13.20;;;2.50;;
46463;SDS011;32161;48.148;-1.554;2023-03-08T12:41:20;9.20;;;2.40;;
46463;SDS011;32161;48.148;-1.554;2023-03-08T12:43:57;11.10;;;2.40;;
46463;SDS011;32161;48.148;-1.554;2023-03-08T12:46:42;15.55;;;3.67;;
46463;SDS011;32161;48.148;-1.554;2023-03-08T12:49:17;14.00;;;3.67;;
46463;SDS011;32161;48.148;-1.554;2023-03-08T12:51:56;10.73;;;2.78;;
46463;SDS011;32161;48.148;-1.554;2023-03-08T12:54:28;16.58;;;2.72;;
46463;SDS011;32161;48.148;-1.554;2023-03-08T12:56:59;18.70;;;5.68;;
46463;SDS011;32161;48.148;-1.554;2023-03-08T12:59:34;16.55;;;3.53;;
46463;SDS011;32161;48.148;-1.554;2023-03-08T13:02:23;15.95;;;3.03;;
46463;SDS011;32161;48.148;-1.554;2023-03-08T13:05:17;18.85;;;3.28;;
46463;SDS011;32161;48.148;-1.554;2023-03-08T13:10:59;17.70;;;3.70;;
46463;SDS011;32161;48.148;-1.554;2023-03-08T13:13:40;15.55;;;5.47;;
46463;SDS011;32161;48.148;-1.554;2023-03-08T13:19:10;20.02;;;3.80;;
46463;SDS011;32161;48.148;-1.554;2023-03-08T13:21:49;16.30;;;4.55;;
46463;SDS011;32161;48.148;-1.554;2023-03-08T13:24:37;22.98;;;4.45;;
46463;SDS011;32161;48.148;-1.554;2023-03-08T13:27:15;22.60;;;4.70;;
46463;SDS011;32161;48.148;-1.554;2023-03-08T13:29:56;15.40;;;4.13;;
46463;SDS011;32161;48.148;-1.554;2023-03-08T13:32:27;28.10;;;3.45;;
46463;SDS011;32161;48.148;-1.554;2023-03-08T13:35:00;21.02;;;4.22;;
46463;SDS011;32161;48.148;-1.554;2023-03-08T13:37:30;12.73;;;2.90;;
46463;SDS011;32161;48.148;-1.554;2023-03-08T13:39:58;13.93;;;3.35;;
46463;SDS011;32161;48.148;-1.554;2023-03-08T13:42:27;16.65;;;4.00;;
46463;SDS011;32161;48.148;-1.554;2023-03-08T13:45:04;13.77;;;2.60;;
46463;SDS011;32161;48.148;-1.554;2023-03-08T13:47:34;22.10;;;4.00;;
46463;SDS011;32161;48.148;-1.554;2023-03-08T13:50:06;13.65;;;3.63;;
46463;SDS011;32161;48.148;-1.554;2023-03-08T13:52:43;16.52;;;2.53;;
46463;SDS011;32161;48.148;-1.554;2023-03-08T13:55:11;13.95;;;3.00;;
46463;SDS011;32161;48.148;-1.554;2023-03-08T13:57:47;17.67;;;3.08;;
46463;SDS011;32161;48.148;-1.554;2023-03-08T14:00:25;14.45;;;3.08;;
46463;SDS011;32161;48.148;-1.554;2023-03-08T14:02:56;15.15;;;2.60;;
46463;SDS011;32161;48.148;-1.554;2023-03-08T14:05:27;11.13;;;2.45;;
46463;SDS011;32161;48.148;-1.554;2023-03-08T14:07:58;11.95;;;3.45;;
46463;SDS011;32161;48.148;-1.554;2023-03-08T14:10:34;9.23;;;2.50;;
46463;SDS011;32161;48.148;-1.554;2023-03-08T14:13:11;12.93;;;2.88;;
46463;SDS011;32161;48.148;-1.554;2023-03-08T14:15:47;11.25;;;3.38;;
46463;SDS011;32161;48.148;-1.554;2023-03-08T14:18:19;13.40;;;2.53;;
46463;SDS011;32161;48.148;-1.554;2023-03-08T14:23:28;12.90;;;2.10;;
46463;SDS011;32161;48.148;-1.554;2023-03-08T14:25:58;13.68;;;3.30;;
46463;SDS011;32161;48.148;-1.554;2023-03-08T14:28:33;9.90;;;2.58;;
46463;SDS011;32161;48.148;-1.554;2023-03-08T14:31:03;11.77;;;2.72;;
46463;SDS011;32161;48.148;-1.554;2023-03-08T14:33:57;18.33;;;3.05;;
46463;SDS011;32161;48.148;-1.554;2023-03-08T14:36:28;13.23;;;2.35;;
46463;SDS011;32161;48.148;-1.554;2023-03-08T14:38:57;19.50;;;3.47;;
46463;SDS011;32161;48.148;-1.554;2023-03-08T14:41:29;16.02;;;2.88;;
46463;SDS011;32161;48.148;-1.554;2023-03-08T14:43:59;15.93;;;3.08;;
46463;SDS011;32161;48.148;-1.554;2023-03-08T14:46:28;20.17;;;2.67;;
46463;SDS011;32161;48.148;-1.554;2023-03-08T14:48:57;13.45;;;2.55;;
46463;SDS011;32161;48.148;-1.554;2023-03-08T14:51:29;12.93;;;3.05;;
46463;SDS011;32161;48.148;-1.554;2023-03-08T14:54:05;14.00;;;2.80;;
46463;SDS011;32161;48.148;-1.554;2023-03-08T14:56:54;14.88;;;3.03;;
46463;SDS011;32161;48.148;-1.554;2023-03-08T14:59:22;10.27;;;3.53;;
46463;SDS011;32161;48.148;-1.554;2023-03-08T15:01:50;16.30;;;2.90;;
46463;SDS011;32161;48.148;-1.554;2023-03-08T15:04:18;17.40;;;3.45;;
46463;SDS011;32161;48.148;-1.554;2023-03-08T15:06:50;27.48;;;5.30;;
46463;SDS011;32161;48.148;-1.554;2023-03-08T15:09:20;19.40;;;4.05;;
46463;SDS011;32161;48.148;-1.554;2023-03-08T15:11:49;18.60;;;3.45;;
46463;SDS011;32161;48.148;-1.554;2023-03-08T15:14:21;17.65;;;3.95;;